sensor_id;sensor_type;location;lat;lon;timestamp;P1;durP1;ratioP1;P2;durP2;ratioP2
13953;SDS011;7049;49.444;8.522;2022-09-03T00:05:09;0.30;;;0.30;;
13953;SDS011;7049;49.444;8.522;2022-09-03T00:10:18;0.30;;;0.30;;
13953;SDS011;7049;49.444;8.522;2022-09-03T00:15:25;0.30;;;0.30;;
13953;SDS011;7049;49.444;8.522;2022-09-03T00:20:29;0.77;;;0.47;;
13953;SDS011;7049;49.444;8.522;2022-09-03T00:25:36;0.53;;;0.40;;
13953;SDS011;7049;49.444;8.522;2022-09-03T00:30:40;0.10;;;0.10;;
13953;SDS011;7049;49.444;8.522;2022-09-03T00:35:45;0.30;;;0.30;;
13953;SDS011;7049;49.444;8.522;2022-09-03T00:41:00;0.20;;;0.20;;
13953;SDS011;7049;49.444;8.522;2022-09-03T00:46:09;0.93;;;0.67;;
13953;SDS011;7049;49.444;8.522;2022-09-03T00:51:20;0.30;;;0.30;;
13953;SDS011;7049;49.444;8.522;2022-09-03T00:56:32;0.10;;;0.10;;
13953;SDS011;7049;49.444;8.522;2022-09-03T01:01:44;5.63;;;0.57;;
13953;SDS011;7049;49.444;8.522;2022-09-03T01:06:52;1.20;;;0.60;;
13953;SDS011;7049;49.444;8.522;2022-09-03T01:12:03;0.30;;;0.30;;
13953;SDS011;7049;49.444;8.522;2022-09-03T01:17:15;0.40;;;0.40;;
13953;SDS011;7049;49.444;8.522;2022-09-03T01:22:39;0.63;;;0.63;;
13953;SDS011;7049;49.444;8.522;2022-09-03T01:28:04;0.30;;;0.30;;
13953;SDS011;7049;49.444;8.522;2022-09-03T01:33:20;0.30;;;0.30;;
13953;SDS011;7049;49.444;8.522;2022-09-03T01:38:28;0.23;;;0.23;;
13953;SDS011;7049;49.444;8.522;2022-09-03T01:43:37;0.30;;;0.30;;
13953;SDS011;7049;49.444;8.522;2022-09-03T01:48:51;0.13;;;0.13;;
13953;SDS011;7049;49.444;8.522;2022-09-03T01:54:05;0.50;;;0.50;;
13953;SDS011;7049;49.444;8.522;2022-09-03T01:59:25;0.40;;;0.40;;
13953;SDS011;7049;49.444;8.522;2022-09-03T02:04:32;0.33;;;0.33;;
13953;SDS011;7049;49.444;8.522;2022-09-03T02:09:34;0.27;;;0.27;;
13953;SDS011;7049;49.444;8.522;2022-09-03T02:14:36;0.30;;;0.30;;
13953;SDS011;7049;49.444;8.522;2022-09-03T02:19:38;0.10;;;0.10;;
13953;SDS011;7049;49.444;8.522;2022-09-03T02:24:39;0.20;;;0.20;;
13953;SDS011;7049;49.444;8.522;2022-09-03T02:29:42;0.17;;;0.17;;
13953;SDS011;7049;49.444;8.522;2022-09-03T02:34:44;0.47;;;0.47;;
13953;SDS011;7049;49.444;8.522;2022-09-03T02:39:46;0.50;;;0.50;;
13953;SDS011;7049;49.444;8.522;2022-09-03T02:44:50;0.20;;;0.20;;
13953;SDS011;7049;49.444;8.522;2022-09-03T02:49:55;0.30;;;0.30;;
13953;SDS011;7049;49.444;8.522;2022-09-03T02:54:56;0.40;;;0.40;;
13953;SDS011;7049;49.444;8.522;2022-09-03T02:59:59;3.10;;;0.57;;
13953;SDS011;7049;49.444;8.522;2022-09-03T03:05:00;0.50;;;0.47;;
13953;SDS011;7049;49.444;8.522;2022-09-03T03:10:02;0.20;;;0.20;;
13953;SDS011;7049;49.444;8.522;2022-09-03T03:15:05;0.37;;;0.37;;
13953;SDS011;7049;49.444;8.522;2022-09-03T03:20:07;0.27;;;0.27;;
13953;SDS011;7049;49.444;8.522;2022-09-03T03:25:09;0.40;;;0.40;;
13953;SDS011;7049;49.444;8.522;2022-09-03T03:30:12;0.40;;;0.40;;
13953;SDS011;7049;49.444;8.522;2022-09-03T03:35:14;0.33;;;0.33;;
13953;SDS011;7049;49.444;8.522;2022-09-03T03:40:15;0.23;;;0.23;;
13953;SDS011;7049;49.444;8.522;2022-09-03T03:45:20;0.60;;;0.60;;
13953;SDS011;7049;49.444;8.522;2022-09-03T03:50:21;0.30;;;0.30;;
13953;SDS011;7049;49.444;8.522;2022-09-03T03:55:23;0.40;;;0.40;;
13953;SDS011;7049;49.444;8.522;2022-09-03T04:00:26;0.50;;;0.50;;
13953;SDS011;7049;49.444;8.522;2022-09-03T04:05:27;0.77;;;0.50;;
13953;SDS011;7049;49.444;8.522;2022-09-03T04:10:29;0.10;;;0.10;;
13953;SDS011;7049;49.444;8.522;2022-09-03T04:15:31;0.27;;;0.20;;
13953;SDS011;7049;49.444;8.522;2022-09-03T04:20:34;0.47;;;0.47;;
13953;SDS011;7049;49.444;8.522;2022-09-03T04:25:36;0.30;;;0.30;;
13953;SDS011;7049;49.444;8.522;2022-09-03T04:30:40;0.40;;;0.40;;
13953;SDS011;7049;49.444;8.522;2022-09-03T04:35:41;0.77;;;0.77;;
13953;SDS011;7049;49.444;8.522;2022-09-03T04:40:43;0.30;;;0.30;;
13953;SDS011;7049;49.444;8.522;2022-09-03T04:45:56;0.30;;;0.30;;
13953;SDS011;7049;49.444;8.522;2022-09-03T04:51:00;0.20;;;0.20;;
13953;SDS011;7049;49.444;8.522;2022-09-03T04:56:10;0.20;;;0.20;;
13953;SDS011;7049;49.444;8.522;2022-09-03T05:01:15;0.30;;;0.30;;
13953;SDS011;7049;49.444;8.522;2022-09-03T05:06:18;0.33;;;0.33;;
13953;SDS011;7049;49.444;8.522;2022-09-03T05:11:20;1.20;;;0.30;;
13953;SDS011;7049;49.444;8.522;2022-09-03T05:16:23;0.20;;;0.20;;
13953;SDS011;7049;49.444;8.522;2022-09-03T05:21:27;0.30;;;0.30;;
13953;SDS011;7049;49.444;8.522;2022-09-03T05:26:30;1.73;;;0.73;;
13953;SDS011;7049;49.444;8.522;2022-09-03T05:31:35;0.30;;;0.30;;
13953;SDS011;7049;49.444;8.522;2022-09-03T05:36:38;0.47;;;0.47;;
13953;SDS011;7049;49.444;8.522;2022-09-03T05:41:39;0.40;;;0.40;;
13953;SDS011;7049;49.444;8.522;2022-09-03T05:46:42;0.30;;;0.27;;
13953;SDS011;7049;49.444;8.522;2022-09-03T05:51:44;0.47;;;0.47;;
13953;SDS011;7049;49.444;8.522;2022-09-03T05:56:45;0.63;;;0.63;;
13953;SDS011;7049;49.444;8.522;2022-09-03T06:01:48;0.70;;;0.57;;
13953;SDS011;7049;49.444;8.522;2022-09-03T06:06:49;0.70;;;0.70;;
13953;SDS011;7049;49.444;8.522;2022-09-03T06:11:51;0.70;;;0.70;;
13953;SDS011;7049;49.444;8.522;2022-09-03T06:16:55;0.63;;;0.60;;
13953;SDS011;7049;49.444;8.522;2022-09-03T06:21:56;0.30;;;0.30;;
13953;SDS011;7049;49.444;8.522;2022-09-03T06:26:57;0.60;;;0.60;;
13953;SDS011;7049;49.444;8.522;2022-09-03T06:32:02;0.63;;;0.63;;
13953;SDS011;7049;49.444;8.522;2022-09-03T06:37:03;0.90;;;0.90;;
13953;SDS011;7049;49.444;8.522;2022-09-03T06:42:05;1.13;;;1.10;;
13953;SDS011;7049;49.444;8.522;2022-09-03T06:47:09;0.70;;;0.70;;
13953;SDS011;7049;49.444;8.522;2022-09-03T06:52:10;0.77;;;0.60;;
13953;SDS011;7049;49.444;8.522;2022-09-03T06:57:12;0.53;;;0.53;;
13953;SDS011;7049;49.444;8.522;2022-09-03T07:02:14;0.60;;;0.60;;
13953;SDS011;7049;49.444;8.522;2022-09-03T07:07:17;0.40;;;0.40;;
13953;SDS011;7049;49.444;8.522;2022-09-03T07:12:19;0.27;;;0.27;;
13953;SDS011;7049;49.444;8.522;2022-09-03T07:17:21;0.40;;;0.40;;
13953;SDS011;7049;49.444;8.522;2022-09-03T07:22:23;2.70;;;0.57;;
13953;SDS011;7049;49.444;8.522;2022-09-03T07:27:24;0.30;;;0.30;;
13953;SDS011;7049;49.444;8.522;2022-09-03T07:32:27;0.40;;;0.40;;
13953;SDS011;7049;49.444;8.522;2022-09-03T07:37:29;0.40;;;0.40;;
13953;SDS011;7049;49.444;8.522;2022-09-03T07:42:30;0.60;;;0.40;;
13953;SDS011;7049;49.444;8.522;2022-09-03T07:47:33;0.93;;;0.93;;
13953;SDS011;7049;49.444;8.522;2022-09-03T07:52:35;0.63;;;0.63;;
13953;SDS011;7049;49.444;8.522;2022-09-03T07:57:36;0.40;;;0.40;;
13953;SDS011;7049;49.444;8.522;2022-09-03T08:02:41;0.80;;;0.80;;
13953;SDS011;7049;49.444;8.522;2022-09-03T08:07:42;0.30;;;0.30;;
13953;SDS011;7049;49.444;8.522;2022-09-03T08:12:44;0.80;;;0.80;;
13953;SDS011;7049;49.444;8.522;2022-09-03T08:17:47;0.30;;;0.30;;
13953;SDS011;7049;49.444;8.522;2022-09-03T08:22:48;0.27;;;0.27;;
13953;SDS011;7049;49.444;8.522;2022-09-03T08:27:50;1.60;;;0.90;;
13953;SDS011;7049;49.444;8.522;2022-09-03T08:32:53;0.63;;;0.63;;
13953;SDS011;7049;49.444;8.522;2022-09-03T08:37:54;1.50;;;0.50;;
13953;SDS011;7049;49.444;8.522;2022-09-03T08:42:57;0.27;;;0.27;;
13953;SDS011;7049;49.444;8.522;2022-09-03T08:48:12;0.43;;;0.43;;
13953;SDS011;7049;49.444;8.522;2022-09-03T08:53:17;1.17;;;0.87;;
13953;SDS011;7049;49.444;8.522;2022-09-03T08:58:24;0.60;;;0.60;;
13953;SDS011;7049;49.444;8.522;2022-09-03T09:03:40;0.60;;;0.60;;
13953;SDS011;7049;49.444;8.522;2022-09-03T09:08:45;1.13;;;0.80;;
13953;SDS011;7049;49.444;8.522;2022-09-03T09:13:57;0.63;;;0.63;;
13953;SDS011;7049;49.444;8.522;2022-09-03T09:19:07;0.50;;;0.50;;
13953;SDS011;7049;49.444;8.522;2022-09-03T09:24:20;0.50;;;0.50;;
13953;SDS011;7049;49.444;8.522;2022-09-03T09:29:23;0.53;;;0.53;;
13953;SDS011;7049;49.444;8.522;2022-09-03T09:34:32;0.60;;;0.60;;
13953;SDS011;7049;49.444;8.522;2022-09-03T09:39:34;0.70;;;0.70;;
13953;SDS011;7049;49.444;8.522;2022-09-03T09:44:36;0.93;;;0.90;;
13953;SDS011;7049;49.444;8.522;2022-09-03T09:49:50;1.20;;;0.77;;
13953;SDS011;7049;49.444;8.522;2022-09-03T09:55:05;0.60;;;0.60;;
13953;SDS011;7049;49.444;8.522;2022-09-03T10:00:08;1.03;;;0.60;;
13953;SDS011;7049;49.444;8.522;2022-09-03T10:05:14;0.57;;;0.47;;
13953;SDS011;7049;49.444;8.522;2022-09-03T10:10:20;0.50;;;0.50;;
13953;SDS011;7049;49.444;8.522;2022-09-03T10:15:23;0.53;;;0.53;;
13953;SDS011;7049;49.444;8.522;2022-09-03T10:20:32;0.80;;;0.80;;
13953;SDS011;7049;49.444;8.522;2022-09-03T10:25:40;2.23;;;0.57;;
13953;SDS011;7049;49.444;8.522;2022-09-03T10:31:02;0.80;;;0.80;;
13953;SDS011;7049;49.444;8.522;2022-09-03T10:36:17;0.43;;;0.43;;
13953;SDS011;7049;49.444;8.522;2022-09-03T10:41:25;0.80;;;0.80;;
13953;SDS011;7049;49.444;8.522;2022-09-03T10:46:39;0.60;;;0.60;;
13953;SDS011;7049;49.444;8.522;2022-09-03T10:51:54;0.60;;;0.60;;
13953;SDS011;7049;49.444;8.522;2022-09-03T10:57:06;0.60;;;0.60;;
13953;SDS011;7049;49.444;8.522;2022-09-03T11:02:22;0.73;;;0.73;;
13953;SDS011;7049;49.444;8.522;2022-09-03T11:07:35;0.70;;;0.70;;
13953;SDS011;7049;49.444;8.522;2022-09-03T11:12:41;1.30;;;1.20;;
13953;SDS011;7049;49.444;8.522;2022-09-03T11:17:47;0.80;;;0.80;;
13953;SDS011;7049;49.444;8.522;2022-09-03T11:22:58;0.77;;;0.77;;
13953;SDS011;7049;49.444;8.522;2022-09-03T11:28:07;0.87;;;0.87;;
13953;SDS011;7049;49.444;8.522;2022-09-03T11:33:18;0.90;;;0.90;;
13953;SDS011;7049;49.444;8.522;2022-09-03T11:38:25;4.63;;;1.03;;
13953;SDS011;7049;49.444;8.522;2022-09-03T11:43:30;0.60;;;0.60;;
13953;SDS011;7049;49.444;8.522;2022-09-03T11:48:35;0.50;;;0.50;;
13953;SDS011;7049;49.444;8.522;2022-09-03T11:53:40;1.03;;;1.03;;
13953;SDS011;7049;49.444;8.522;2022-09-03T11:58:41;0.60;;;0.60;;
13953;SDS011;7049;49.444;8.522;2022-09-03T12:03:43;0.43;;;0.43;;
13953;SDS011;7049;49.444;8.522;2022-09-03T12:08:54;0.37;;;0.37;;
13953;SDS011;7049;49.444;8.522;2022-09-03T12:14:10;0.67;;;0.67;;
13953;SDS011;7049;49.444;8.522;2022-09-03T12:19:20;0.50;;;0.50;;
13953;SDS011;7049;49.444;8.522;2022-09-03T12:24:32;0.53;;;0.53;;
13953;SDS011;7049;49.444;8.522;2022-09-03T12:29:34;0.73;;;0.50;;
13953;SDS011;7049;49.444;8.522;2022-09-03T12:34:43;0.60;;;0.60;;
13953;SDS011;7049;49.444;8.522;2022-09-03T12:39:49;0.50;;;0.50;;
13953;SDS011;7049;49.444;8.522;2022-09-03T12:44:51;0.67;;;0.67;;
13953;SDS011;7049;49.444;8.522;2022-09-03T12:49:55;0.43;;;0.43;;
13953;SDS011;7049;49.444;8.522;2022-09-03T12:54:59;0.37;;;0.37;;
13953;SDS011;7049;49.444;8.522;2022-09-03T13:00:05;0.50;;;0.50;;
13953;SDS011;7049;49.444;8.522;2022-09-03T13:05:10;0.30;;;0.30;;
13953;SDS011;7049;49.444;8.522;2022-09-03T13:10:21;0.70;;;0.70;;
13953;SDS011;7049;49.444;8.522;2022-09-03T13:15:26;0.40;;;0.40;;
13953;SDS011;7049;49.444;8.522;2022-09-03T13:20:32;0.60;;;0.60;;
13953;SDS011;7049;49.444;8.522;2022-09-03T13:25:36;1.00;;;0.90;;
13953;SDS011;7049;49.444;8.522;2022-09-03T13:30:52;0.70;;;0.70;;
13953;SDS011;7049;49.444;8.522;2022-09-03T13:35:59;0.70;;;0.70;;
13953;SDS011;7049;49.444;8.522;2022-09-03T13:41:06;0.80;;;0.80;;
13953;SDS011;7049;49.444;8.522;2022-09-03T13:46:15;1.13;;;1.10;;
13953;SDS011;7049;49.444;8.522;2022-09-03T13:51:22;0.70;;;0.70;;
13953;SDS011;7049;49.444;8.522;2022-09-03T13:56:33;0.90;;;0.90;;
13953;SDS011;7049;49.444;8.522;2022-09-03T14:01:57;0.60;;;0.60;;
13953;SDS011;7049;49.444;8.522;2022-09-03T14:07:14;0.60;;;0.60;;
13953;SDS011;7049;49.444;8.522;2022-09-03T14:12:24;0.70;;;0.70;;
13953;SDS011;7049;49.444;8.522;2022-09-03T14:17:35;0.77;;;0.77;;
13953;SDS011;7049;49.444;8.522;2022-09-03T14:22:46;0.60;;;0.60;;
13953;SDS011;7049;49.444;8.522;2022-09-03T14:27:53;0.70;;;0.70;;
13953;SDS011;7049;49.444;8.522;2022-09-03T14:32:56;0.70;;;0.70;;
13953;SDS011;7049;49.444;8.522;2022-09-03T14:38:14;0.63;;;0.63;;
13953;SDS011;7049;49.444;8.522;2022-09-03T14:43:40;0.60;;;0.60;;
13953;SDS011;7049;49.444;8.522;2022-09-03T14:49:03;0.93;;;0.93;;
13953;SDS011;7049;49.444;8.522;2022-09-03T14:59:57;0.73;;;0.73;;
13953;SDS011;7049;49.444;8.522;2022-09-03T15:05:08;0.87;;;0.87;;
13953;SDS011;7049;49.444;8.522;2022-09-03T15:10:14;0.80;;;0.80;;
13953;SDS011;7049;49.444;8.522;2022-09-03T15:15:23;0.93;;;0.93;;
13953;SDS011;7049;49.444;8.522;2022-09-03T15:20:31;0.80;;;0.80;;
13953;SDS011;7049;49.444;8.522;2022-09-03T15:25:46;0.70;;;0.70;;
13953;SDS011;7049;49.444;8.522;2022-09-03T15:31:00;0.77;;;0.77;;
13953;SDS011;7049;49.444;8.522;2022-09-03T15:36:14;0.43;;;0.43;;
13953;SDS011;7049;49.444;8.522;2022-09-03T15:41:23;0.67;;;0.67;;
13953;SDS011;7049;49.444;8.522;2022-09-03T15:46:36;0.53;;;0.53;;
13953;SDS011;7049;49.444;8.522;2022-09-03T15:51:46;0.70;;;0.70;;
13953;SDS011;7049;49.444;8.522;2022-09-03T15:57:00;0.70;;;0.63;;
13953;SDS011;7049;49.444;8.522;2022-09-03T16:02:08;0.53;;;0.53;;
13953;SDS011;7049;49.444;8.522;2022-09-03T16:07:15;0.40;;;0.40;;
13953;SDS011;7049;49.444;8.522;2022-09-03T16:12:25;0.40;;;0.40;;
13953;SDS011;7049;49.444;8.522;2022-09-03T16:17:37;0.27;;;0.27;;
13953;SDS011;7049;49.444;8.522;2022-09-03T16:22:50;0.60;;;0.60;;
13953;SDS011;7049;49.444;8.522;2022-09-03T16:27:59;0.67;;;0.67;;
13953;SDS011;7049;49.444;8.522;2022-09-03T16:33:09;0.50;;;0.50;;
13953;SDS011;7049;49.444;8.522;2022-09-03T16:38:26;0.83;;;0.83;;
13953;SDS011;7049;49.444;8.522;2022-09-03T16:43:35;0.87;;;0.87;;
13953;SDS011;7049;49.444;8.522;2022-09-03T16:48:48;0.60;;;0.60;;
13953;SDS011;7049;49.444;8.522;2022-09-03T16:54:00;0.50;;;0.50;;
13953;SDS011;7049;49.444;8.522;2022-09-03T16:59:19;0.63;;;0.63;;
13953;SDS011;7049;49.444;8.522;2022-09-03T17:04:48;0.80;;;0.80;;
13953;SDS011;7049;49.444;8.522;2022-09-03T17:10:02;0.90;;;0.90;;
13953;SDS011;7049;49.444;8.522;2022-09-03T17:15:31;0.80;;;0.80;;
13953;SDS011;7049;49.444;8.522;2022-09-03T17:20:46;0.80;;;0.80;;
13953;SDS011;7049;49.444;8.522;2022-09-03T17:25:53;0.80;;;0.80;;
13953;SDS011;7049;49.444;8.522;2022-09-03T17:31:04;0.87;;;0.87;;
13953;SDS011;7049;49.444;8.522;2022-09-03T17:36:16;0.60;;;0.60;;
13953;SDS011;7049;49.444;8.522;2022-09-03T17:41:25;1.07;;;1.07;;
13953;SDS011;7049;49.444;8.522;2022-09-03T17:46:33;0.63;;;0.63;;
13953;SDS011;7049;49.444;8.522;2022-09-03T17:51:46;0.73;;;0.73;;
13953;SDS011;7049;49.444;8.522;2022-09-03T17:56:53;0.63;;;0.63;;
13953;SDS011;7049;49.444;8.522;2022-09-03T18:02:01;0.73;;;0.73;;
13953;SDS011;7049;49.444;8.522;2022-09-03T18:07:12;0.87;;;0.87;;
13953;SDS011;7049;49.444;8.522;2022-09-03T18:12:25;1.13;;;0.73;;
13953;SDS011;7049;49.444;8.522;2022-09-03T18:17:36;0.67;;;0.67;;
13953;SDS011;7049;49.444;8.522;2022-09-03T18:22:43;1.00;;;0.63;;
13953;SDS011;7049;49.444;8.522;2022-09-03T18:28:08;0.93;;;0.93;;
13953;SDS011;7049;49.444;8.522;2022-09-03T18:33:31;0.60;;;0.60;;
13953;SDS011;7049;49.444;8.522;2022-09-03T18:39:04;1.50;;;1.40;;
13953;SDS011;7049;49.444;8.522;2022-09-03T18:44:34;0.83;;;0.83;;
13953;SDS011;7049;49.444;8.522;2022-09-03T18:50:03;1.23;;;1.13;;
13953;SDS011;7049;49.444;8.522;2022-09-03T18:55:34;0.97;;;0.97;;
13953;SDS011;7049;49.444;8.522;2022-09-03T19:01:06;2.13;;;0.80;;
13953;SDS011;7049;49.444;8.522;2022-09-03T19:06:34;0.80;;;0.80;;
13953;SDS011;7049;49.444;8.522;2022-09-03T19:12:02;0.77;;;0.77;;
13953;SDS011;7049;49.444;8.522;2022-09-03T19:17:34;0.67;;;0.67;;
13953;SDS011;7049;49.444;8.522;2022-09-03T19:23:09;0.73;;;0.73;;
13953;SDS011;7049;49.444;8.522;2022-09-03T19:28:29;0.53;;;0.53;;
13953;SDS011;7049;49.444;8.522;2022-09-03T19:33:52;0.70;;;0.70;;
13953;SDS011;7049;49.444;8.522;2022-09-03T19:39:25;0.60;;;0.60;;
13953;SDS011;7049;49.444;8.522;2022-09-03T19:45:02;0.53;;;0.53;;
13953;SDS011;7049;49.444;8.522;2022-09-03T19:50:30;0.83;;;0.83;;
13953;SDS011;7049;49.444;8.522;2022-09-03T19:55:56;0.67;;;0.67;;
13953;SDS011;7049;49.444;8.522;2022-09-03T20:01:19;0.87;;;0.87;;
13953;SDS011;7049;49.444;8.522;2022-09-03T20:06:44;0.70;;;0.70;;
13953;SDS011;7049;49.444;8.522;2022-09-03T20:12:06;2.80;;;0.93;;
13953;SDS011;7049;49.444;8.522;2022-09-03T20:17:11;1.17;;;0.93;;
13953;SDS011;7049;49.444;8.522;2022-09-03T20:22:22;1.10;;;1.00;;
13953;SDS011;7049;49.444;8.522;2022-09-03T20:27:33;1.00;;;1.00;;
13953;SDS011;7049;49.444;8.522;2022-09-03T20:32:49;1.30;;;1.20;;
13953;SDS011;7049;49.444;8.522;2022-09-03T20:38:01;1.37;;;1.27;;
13953;SDS011;7049;49.444;8.522;2022-09-03T20:43:25;1.20;;;1.10;;
13953;SDS011;7049;49.444;8.522;2022-09-03T20:48:47;1.27;;;1.00;;
13953;SDS011;7049;49.444;8.522;2022-09-03T20:54:05;0.97;;;0.97;;
13953;SDS011;7049;49.444;8.522;2022-09-03T20:59:13;1.97;;;1.63;;
13953;SDS011;7049;49.444;8.522;2022-09-03T21:04:31;1.27;;;1.17;;
13953;SDS011;7049;49.444;8.522;2022-09-03T21:09:41;0.57;;;0.57;;
13953;SDS011;7049;49.444;8.522;2022-09-03T21:14:52;1.20;;;1.10;;
13953;SDS011;7049;49.444;8.522;2022-09-03T21:20:06;0.50;;;0.50;;
13953;SDS011;7049;49.444;8.522;2022-09-03T21:25:19;0.80;;;0.80;;
13953;SDS011;7049;49.444;8.522;2022-09-03T21:30:24;0.80;;;0.80;;
13953;SDS011;7049;49.444;8.522;2022-09-03T21:35:28;0.90;;;0.90;;
13953;SDS011;7049;49.444;8.522;2022-09-03T21:40:33;1.00;;;1.00;;
13953;SDS011;7049;49.444;8.522;2022-09-03T21:45:39;0.87;;;0.83;;
13953;SDS011;7049;49.444;8.522;2022-09-03T21:50:50;0.60;;;0.60;;
13953;SDS011;7049;49.444;8.522;2022-09-03T22:01:23;0.67;;;0.67;;
13953;SDS011;7049;49.444;8.522;2022-09-03T22:06:37;0.80;;;0.80;;
13953;SDS011;7049;49.444;8.522;2022-09-03T22:11:44;0.80;;;0.77;;
13953;SDS011;7049;49.444;8.522;2022-09-03T22:16:53;1.07;;;1.07;;
13953;SDS011;7049;49.444;8.522;2022-09-03T22:21:59;1.00;;;1.00;;
13953;SDS011;7049;49.444;8.522;2022-09-03T22:27:03;1.27;;;1.17;;
13953;SDS011;7049;49.444;8.522;2022-09-03T22:32:22;0.97;;;0.97;;
13953;SDS011;7049;49.444;8.522;2022-09-03T22:37:39;1.73;;;1.50;;
13953;SDS011;7049;49.444;8.522;2022-09-03T22:43:14;1.73;;;1.13;;
13953;SDS011;7049;49.444;8.522;2022-09-03T22:48:27;1.23;;;1.17;;
13953;SDS011;7049;49.444;8.522;2022-09-03T22:53:42;1.17;;;1.07;;
13953;SDS011;7049;49.444;8.522;2022-09-03T22:58:57;0.83;;;0.83;;
13953;SDS011;7049;49.444;8.522;2022-09-03T23:04:05;0.97;;;0.93;;
13953;SDS011;7049;49.444;8.522;2022-09-03T23:09:14;2.17;;;1.00;;
13953;SDS011;7049;49.444;8.522;2022-09-03T23:14:20;0.93;;;0.93;;
13953;SDS011;7049;49.444;8.522;2022-09-03T23:19:26;0.47;;;0.47;;
13953;SDS011;7049;49.444;8.522;2022-09-03T23:24:42;1.33;;;1.10;;
13953;SDS011;7049;49.444;8.522;2022-09-03T23:29:49;2.90;;;1.00;;
13953;SDS011;7049;49.444;8.522;2022-09-03T23:34:55;1.23;;;1.13;;
13953;SDS011;7049;49.444;8.522;2022-09-03T23:40:09;1.07;;;1.07;;
13953;SDS011;7049;49.444;8.522;2022-09-03T23:45:22;1.23;;;1.13;;
13953;SDS011;7049;49.444;8.522;2022-09-03T23:50:33;1.17;;;1.17;;
13953;SDS011;7049;49.444;8.522;2022-09-03T23:55:46;1.90;;;1.80;;
